Pagrindinis puslapis
METAR-TAF:

METAR-TAF

Oro uostai :

Friportas, Bahamos

platuma: 26-33N, ilguma: 078-42W, Aukštis: 2 m

Dabartinis oras

Ataskaita buvo paskelbta 5 valandos ir 46 minutes, ne 00:00 UTC
Vėjas 7 kt iš Rytų/Pietryčių
Temperatūra 29°C
Drėgmė 74%
Slėgis 1020 hPa
Matomumas 10 km arba daugiau
Mažai debesys ne aukštis 2500 ft

METAR: MYGF 110000Z 11007KT 9999 FEW025 29/24 A3011

Laikas: 01:46 (05:46 UTC)

Prognozė

Ataskaita buvo paskelbta 46 minutes, ne 05:00 UTC
Prognozė galioja nuo 11 metu 06 UTC su 12 metu 06 UTC
Vėjas 10 kt iš Rytų
Matomumas 10 km arba daugiau
Išsisklaidę debesys ne aukštis 2500 ft

TAF: MYGF 110500Z 1106/1206 10010KT 9999 SCT025

Orai ataskaitas ir orų prognozės (METAR, TAF).

turimą stotys yra geltonos ir raudonos taškus žemėlapyje.

Perkelti pele per norėdami pamatyti stoties vardą.

Tada spustelėkite, norėdami matyti oro stebėjimo ir prognozės.

Norėdami pakeisti žemėlapį: spustelėkite ant žalios mygtukų su juodo kryžiaus žemyn,; žalią mygtuką su brūkšneliu, jei norite nutolinti; arba žalių rodyklių gretimoms žemėlapius.


METAR-TAF: